Time;durP1;ratioP1;P1;durP2;ratioP2;P2;SDS_P1;SDS_P2;PMS_P1;PMS_P2;Temp;Humidity;BMP_temperature;BMP_pressure;BME280_temperature;BME280_humidity;BME280_pressure;Samples;Min_cycle;Max_cycle;Signal;HPM_P1;HPM_P2
2023/08/05 00:01:38;;;;;;;2.80;1.50;;;;;;;;;;5117884;28;20214;-69
2023/08/05 00:04:06;;;;;;;2.92;1.27;;;;;;;;;;5118006;28;20226;-68
2023/08/05 00:06:34;;;;;;;2.22;1.20;;;;;;;;;;5117620;28;20469;-68
2023/08/05 00:09:02;;;;;;;2.03;1.52;;;;;;;;;;5118251;28;20233;-68
2023/08/05 00:11:30;;;;;;;1.65;1.20;;;;;;;;;;5118132;28;20210;-68
2023/08/05 00:13:59;;;;;;;2.53;1.45;;;;;;;;;;5117967;28;20210;-68
2023/08/05 00:16:27;;;;;;;1.55;1.30;;;;;;;;;;5118035;28;20214;-68
2023/08/05 00:18:55;;;;;;;3.38;1.35;;;;;;;;;;5117967;28;20203;-68
2023/08/05 00:21:22;;;;;;;1.55;1.40;;;;;;;;;;5117956;28;20525;-68
2023/08/05 00:23:50;;;;;;;1.98;1.50;;;;;;;;;;5118167;28;20285;-68
2023/08/05 00:26:17;;;;;;;4.10;1.33;;;;;;;;;;5117869;28;20203;-68
2023/08/05 00:28:45;;;;;;;2.50;1.55;;;;;;;;;;5117645;28;20310;-68
2023/08/05 00:31:14;;;;;;;2.53;1.50;;;;;;;;;;5117701;28;20203;-68
2023/08/05 00:33:42;;;;;;;2.78;1.60;;;;;;;;;;5099467;28;20209;-68
2023/08/05 00:36:10;;;;;;;2.65;1.40;;;;;;;;;;5118018;28;20202;-68
2023/08/05 00:38:37;;;;;;;1.50;1.40;;;;;;;;;;5117897;28;20297;-68
2023/08/05 00:41:05;;;;;;;2.70;1.38;;;;;;;;;;5117020;28;20225;-68
2023/08/05 00:43:33;;;;;;;2.33;1.23;;;;;;;;;;5117554;28;20494;-68
2023/08/05 00:46:01;;;;;;;2.28;1.48;;;;;;;;;;5117365;28;20203;-68
2023/08/05 00:48:30;;;;;;;2.42;1.50;;;;;;;;;;5117658;28;20207;-68
2023/08/05 00:50:58;;;;;;;1.75;1.50;;;;;;;;;;5117213;28;20230;-68
2023/08/05 00:53:25;;;;;;;1.35;1.25;;;;;;;;;;5117420;28;20602;-68
2023/08/05 00:55:53;;;;;;;1.40;1.30;;;;;;;;;;5117611;28;20203;-68
2023/08/05 00:58:22;;;;;;;1.40;1.30;;;;;;;;;;5117021;28;20203;-68
2023/08/05 01:00:49;;;;;;;1.58;1.40;;;;;;;;;;5117291;28;20248;-68
2023/08/05 01:03:17;;;;;;;1.63;1.30;;;;;;;;;;5117544;28;20593;-68
2023/08/05 01:05:49;;;;;;;1.77;1.38;;;;;;;;;;5117729;28;20202;-68
2023/08/05 01:08:17;;;;;;;2.20;1.30;;;;;;;;;;5117331;28;20217;-68
2023/08/05 01:10:45;;;;;;;2.88;1.67;;;;;;;;;;5117414;28;20227;-68
2023/08/05 01:13:13;;;;;;;2.10;1.20;;;;;;;;;;5117367;28;20202;-68
2023/08/05 01:15:41;;;;;;;2.25;1.40;;;;;;;;;;5117094;28;20558;-68
2023/08/05 01:18:10;;;;;;;1.88;1.50;;;;;;;;;;5117658;28;20335;-68
2023/08/05 01:20:40;;;;;;;1.50;1.30;;;;;;;;;;5117124;28;20203;-68
2023/08/05 01:23:10;;;;;;;2.25;1.30;;;;;;;;;;5117253;28;20614;-69
2023/08/05 01:25:40;;;;;;;1.73;1.50;;;;;;;;;;5117250;28;20202;-68
2023/08/05 01:28:09;;;;;;;2.13;1.30;;;;;;;;;;5117002;28;20287;-68
2023/08/05 01:30:37;;;;;;;2.45;1.20;;;;;;;;;;5117141;28;20546;-68
2023/08/05 01:33:04;;;;;;;2.92;1.33;;;;;;;;;;5117219;28;20203;-68
2023/08/05 01:35:32;;;;;;;3.45;1.73;;;;;;;;;;5116941;28;20203;-68
2023/08/05 01:38:00;;;;;;;1.73;1.38;;;;;;;;;;5116548;28;20207;-68
2023/08/05 01:40:29;;;;;;;1.80;1.40;;;;;;;;;;5117165;28;20487;-69
2023/08/05 01:42:59;;;;;;;2.72;1.40;;;;;;;;;;5117240;28;20268;-68
2023/08/05 01:45:27;;;;;;;3.35;1.17;;;;;;;;;;5116768;28;20199;-68
2023/08/05 01:47:54;;;;;;;1.35;1.20;;;;;;;;;;5116692;28;20595;-68
2023/08/05 01:50:23;;;;;;;3.53;1.52;;;;;;;;;;5116828;28;20509;-68
2023/08/05 01:52:51;;;;;;;1.55;1.27;;;;;;;;;;5118065;28;20242;-68
2023/08/05 01:55:19;;;;;;;3.78;1.60;;;;;;;;;;5120747;28;20541;-68
2023/08/05 01:57:46;;;;;;;2.13;1.30;;;;;;;;;;5120784;28;20203;-69
2023/08/05 02:00:15;;;;;;;3.15;1.45;;;;;;;;;;5120728;28;20559;-68
2023/08/05 02:02:43;;;;;;;1.98;1.13;;;;;;;;;;5120139;28;20203;-68
2023/08/05 02:05:11;;;;;;;1.65;1.52;;;;;;;;;;5120476;28;20202;-68
2023/08/05 02:07:39;;;;;;;1.80;1.35;;;;;;;;;;5120444;28;20219;-68
2023/08/05 02:10:07;;;;;;;2.38;1.20;;;;;;;;;;5120034;28;20226;-68
2023/08/05 02:12:34;;;;;;;2.05;1.45;;;;;;;;;;5120702;28;20211;-68
2023/08/05 02:15:02;;;;;;;1.52;1.10;;;;;;;;;;5119981;28;20210;-68
2023/08/05 02:17:31;;;;;;;1.63;1.20;;;;;;;;;;5120818;28;20217;-68
2023/08/05 02:19:59;;;;;;;2.92;1.38;;;;;;;;;;5119971;28;20199;-68
2023/08/05 02:22:26;;;;;;;1.58;1.20;;;;;;;;;;5119859;28;20210;-68
2023/08/05 02:24:54;;;;;;;1.90;1.13;;;;;;;;;;5119943;28;20211;-68
2023/08/05 02:27:21;;;;;;;1.23;1.10;;;;;;;;;;5120235;28;20203;-68
2023/08/05 02:29:49;;;;;;;2.70;1.25;;;;;;;;;;5119749;28;20230;-68
2023/08/05 02:32:16;;;;;;;2.90;1.27;;;;;;;;;;5119717;28;20211;-68
2023/08/05 02:34:46;;;;;;;2.92;1.27;;;;;;;;;;5120110;28;20203;-68
2023/08/05 02:37:13;;;;;;;2.00;1.33;;;;;;;;;;5119980;28;20202;-68
2023/08/05 02:39:41;;;;;;;1.40;1.30;;;;;;;;;;5120020;28;20203;-68
2023/08/05 02:42:09;;;;;;;2.28;1.30;;;;;;;;;;5119689;28;20203;-68
2023/08/05 02:44:36;;;;;;;2.97;1.40;;;;;;;;;;5120271;28;20490;-68
2023/08/05 02:47:04;;;;;;;2.53;1.25;;;;;;;;;;5119823;28;20226;-68
2023/08/05 02:49:33;;;;;;;1.73;1.30;;;;;;;;;;5119647;28;20206;-68
2023/08/05 02:52:02;;;;;;;1.30;1.20;;;;;;;;;;5118840;28;20222;-68
2023/08/05 02:54:30;;;;;;;2.08;1.33;;;;;;;;;;5119281;28;20203;-68
2023/08/05 02:56:57;;;;;;;1.48;1.27;;;;;;;;;;5119373;28;20203;-69
2023/08/05 02:59:25;;;;;;;1.35;1.17;;;;;;;;;;5119228;28;20278;-68
2023/08/05 03:01:53;;;;;;;3.65;1.50;;;;;;;;;;5119369;28;20199;-68
2023/08/05 03:04:20;;;;;;;2.28;1.20;;;;;;;;;;5118994;28;20207;-68
2023/08/05 03:06:48;;;;;;;2.88;1.40;;;;;;;;;;5119381;28;20213;-68
2023/08/05 03:09:17;;;;;;;2.38;1.30;;;;;;;;;;5119197;28;20480;-68
2023/08/05 03:11:44;;;;;;;1.50;1.38;;;;;;;;;;5119054;28;20287;-68
2023/08/05 03:14:12;;;;;;;2.05;1.35;;;;;;;;;;5119007;28;20506;-68
2023/08/05 03:16:39;;;;;;;3.42;1.33;;;;;;;;;;5119024;28;20286;-68
2023/08/05 03:19:07;;;;;;;1.40;1.30;;;;;;;;;;5118926;28;20267;-68
2023/08/05 03:21:35;;;;;;;1.35;1.25;;;;;;;;;;5119010;28;20199;-68
2023/08/05 03:24:02;;;;;;;2.15;1.30;;;;;;;;;;5119185;28;20210;-68
2023/08/05 03:26:32;;;;;;;2.55;1.40;;;;;;;;;;5119010;28;20211;-68
2023/08/05 03:28:59;;;;;;;1.65;1.38;;;;;;;;;;5118804;28;20228;-68
2023/08/05 03:31:27;;;;;;;1.98;1.50;;;;;;;;;;5118508;28;20545;-68
2023/08/05 03:33:54;;;;;;;1.92;1.73;;;;;;;;;;5118706;28;20212;-68
2023/08/05 03:36:22;;;;;;;2.72;1.55;;;;;;;;;;5118486;28;20203;-68
2023/08/05 03:38:49;;;;;;;1.50;1.40;;;;;;;;;;5118664;28;20203;-68
2023/08/05 03:41:17;;;;;;;1.98;1.30;;;;;;;;;;5118493;28;20297;-68
2023/08/05 03:43:46;;;;;;;1.42;1.33;;;;;;;;;;5118638;28;20202;-68
2023/08/05 03:46:14;;;;;;;1.80;1.35;;;;;;;;;;5118808;28;20283;-68
2023/08/05 03:48:41;;;;;;;1.92;1.10;;;;;;;;;;5118394;28;20587;-69
2023/08/05 03:51:09;;;;;;;1.88;1.17;;;;;;;;;;5118344;28;20250;-68
2023/08/05 03:53:37;;;;;;;1.50;1.40;;;;;;;;;;5118368;28;20279;-68
2023/08/05 03:56:06;;;;;;;1.92;1.30;;;;;;;;;;5118323;28;20203;-68
2023/08/05 03:58:34;;;;;;;1.40;1.25;;;;;;;;;;5118173;28;20199;-68
2023/08/05 04:01:04;;;;;;;1.75;1.40;;;;;;;;;;5118352;28;20253;-68
2023/08/05 04:03:31;;;;;;;2.25;1.40;;;;;;;;;;5118224;28;20584;-68
2023/08/05 04:05:59;;;;;;;2.30;1.10;;;;;;;;;;5117673;28;20286;-68
2023/08/05 04:08:26;;;;;;;2.13;1.50;;;;;;;;;;5118192;28;20496;-68
2023/08/05 04:10:54;;;;;;;2.42;1.40;;;;;;;;;;5117969;28;20313;-68
2023/08/05 04:13:24;;;;;;;1.88;1.42;;;;;;;;;;5117794;28;20568;-68
2023/08/05 04:15:53;;;;;;;1.85;1.20;;;;;;;;;;5117741;28;20471;-68
2023/08/05 04:18:22;;;;;;;2.08;1.30;;;;;;;;;;5117707;28;20290;-68
2023/08/05 04:20:51;;;;;;;1.95;1.42;;;;;;;;;;5117968;28;20206;-68
2023/08/05 04:23:20;;;;;;;1.88;1.35;;;;;;;;;;5117969;28;20257;-68
2023/08/05 04:25:48;;;;;;;1.33;1.23;;;;;;;;;;5117837;28;20206;-68
2023/08/05 04:28:16;;;;;;;2.00;1.40;;;;;;;;;;5117694;28;20474;-68
2023/08/05 04:30:43;;;;;;;1.55;1.33;;;;;;;;;;5117631;28;20508;-68
2023/08/05 04:33:11;;;;;;;2.25;1.63;;;;;;;;;;5118044;28;20491;-68
2023/08/05 04:35:40;;;;;;;1.63;1.52;;;;;;;;;;5118010;28;20206;-68
2023/08/05 04:38:07;;;;;;;4.00;1.52;;;;;;;;;;5117610;28;20282;-68
2023/08/05 04:40:35;;;;;;;2.25;1.10;;;;;;;;;;5117420;28;20210;-68
2023/08/05 04:43:03;;;;;;;1.38;1.27;;;;;;;;;;5117541;28;20203;-68
2023/08/05 04:45:30;;;;;;;2.70;1.70;;;;;;;;;;5117705;28;20214;-68
2023/08/05 04:47:58;;;;;;;1.70;1.30;;;;;;;;;;5117679;28;20345;-68
2023/08/05 04:50:25;;;;;;;2.45;1.30;;;;;;;;;;5117499;28;20210;-68
2023/08/05 04:52:54;;;;;;;2.03;1.23;;;;;;;;;;5116832;28;20325;-68
2023/08/05 04:55:21;;;;;;;1.33;1.23;;;;;;;;;;5117184;28;20195;-68
2023/08/05 04:57:52;;;;;;;3.05;1.45;;;;;;;;;;5117120;28;20202;-68
2023/08/05 05:00:20;;;;;;;1.50;1.40;;;;;;;;;;5116906;28;20203;-68
2023/08/05 05:02:49;;;;;;;2.83;1.80;;;;;;;;;;5116859;28;20217;-68
2023/08/05 05:05:16;;;;;;;1.40;1.25;;;;;;;;;;5117393;28;20294;-68
2023/08/05 05:07:44;;;;;;;2.03;1.48;;;;;;;;;;5117205;28;20301;-69
2023/08/05 05:10:12;;;;;;;1.92;1.75;;;;;;;;;;5117643;28;20305;-68
2023/08/05 05:12:40;;;;;;;2.42;1.55;;;;;;;;;;5117155;28;20313;-68
2023/08/05 05:15:08;;;;;;;1.75;1.60;;;;;;;;;;5117618;28;20203;-68
2023/08/05 05:17:36;;;;;;;2.28;1.58;;;;;;;;;;5117267;28;20221;-68
2023/08/05 05:20:05;;;;;;;1.48;1.38;;;;;;;;;;5117544;28;20198;-68
2023/08/05 05:22:33;;;;;;;1.58;1.48;;;;;;;;;;5116831;28;20214;-68
2023/08/05 05:25:00;;;;;;;2.08;1.50;;;;;;;;;;5116964;28;20490;-68
2023/08/05 05:27:29;;;;;;;2.25;1.40;;;;;;;;;;5119881;28;20214;-68
2023/08/05 05:29:56;;;;;;;2.35;1.55;;;;;;;;;;5121149;28;20286;-69
2023/08/05 05:32:24;;;;;;;1.40;1.30;;;;;;;;;;5120986;28;20313;-68
2023/08/05 05:34:51;;;;;;;2.25;1.70;;;;;;;;;;5121055;28;20203;-68
2023/08/05 05:37:19;;;;;;;2.22;2.03;;;;;;;;;;5120868;28;20207;-68
2023/08/05 05:39:47;;;;;;;2.55;2.35;;;;;;;;;;5120752;28;20203;-68
2023/08/05 05:42:15;;;;;;;2.67;1.83;;;;;;;;;;5120656;28;20674;-68
2023/08/05 05:44:50;;;;;;;2.70;2.50;;;;;;;;;;5120371;28;20241;-68
2023/08/05 05:47:17;;;;;;;2.70;2.45;;;;;;;;;;5120859;28;20198;-68
2023/08/05 05:49:45;;;;;;;3.03;2.83;;;;;;;;;;5120395;28;20221;-68
2023/08/05 05:52:16;;;;;;;2.80;2.60;;;;;;;;;;5120047;28;20231;-68
2023/08/05 05:54:43;;;;;;;3.10;2.85;;;;;;;;;;5120800;28;20214;-68
2023/08/05 05:57:11;;;;;;;3.20;3.00;;;;;;;;;;5120011;28;20236;-68
2023/08/05 05:59:39;;;;;;;3.25;3.05;;;;;;;;;;5119699;28;20625;-68
2023/08/05 06:02:08;;;;;;;4.65;3.70;;;;;;;;;;5120213;28;20265;-68
2023/08/05 06:04:36;;;;;;;3.80;3.60;;;;;;;;;;5119849;28;20209;-68
2023/08/05 06:07:03;;;;;;;3.70;3.40;;;;;;;;;;5120470;28;20579;-68
2023/08/05 06:09:31;;;;;;;4.28;3.97;;;;;;;;;;5119827;28;20210;-68
2023/08/05 06:11:59;;;;;;;4.70;4.30;;;;;;;;;;5119985;28;20234;-68
2023/08/05 06:14:28;;;;;;;3.88;3.58;;;;;;;;;;5119759;28;20210;-68
2023/08/05 06:16:56;;;;;;;4.57;4.28;;;;;;;;;;5120210;28;20203;-68
2023/08/05 06:19:24;;;;;;;4.50;4.20;;;;;;;;;;5120122;28;20306;-68
2023/08/05 06:21:52;;;;;;;4.53;4.22;;;;;;;;;;5119858;28;20289;-68
2023/08/05 06:24:19;;;;;;;5.10;4.70;;;;;;;;;;5119823;28;20616;-68
2023/08/05 06:26:47;;;;;;;5.20;4.80;;;;;;;;;;5119767;28;20217;-68
2023/08/05 06:29:14;;;;;;;5.30;4.90;;;;;;;;;;5119904;28;20213;-68
2023/08/05 06:31:42;;;;;;;4.90;4.60;;;;;;;;;;5119757;28;20578;-68
2023/08/05 06:34:09;;;;;;;6.00;5.60;;;;;;;;;;5119521;28;20217;-68
2023/08/05 06:36:38;;;;;;;5.75;5.35;;;;;;;;;;5118859;28;20848;-68
2023/08/05 06:39:05;;;;;;;5.80;5.40;;;;;;;;;;5118504;28;20202;-68
2023/08/05 06:41:33;;;;;;;5.45;5.05;;;;;;;;;;5119192;28;20575;-68
2023/08/05 06:44:00;;;;;;;5.63;5.22;;;;;;;;;;5119257;28;20203;-68
2023/08/05 06:46:28;;;;;;;5.45;4.95;;;;;;;;;;5119416;28;20202;-68
2023/08/05 06:48:55;;;;;;;5.60;5.10;;;;;;;;;;5119295;28;20251;-68
2023/08/05 06:51:23;;;;;;;6.00;5.60;;;;;;;;;;5118504;28;20246;-68
2023/08/05 06:53:52;;;;;;;5.65;5.15;;;;;;;;;;5118498;28;20199;-68
2023/08/05 06:56:19;;;;;;;6.43;5.93;;;;;;;;;;5118830;28;20301;-68
2023/08/05 06:58:46;;;;;;;6.30;5.80;;;;;;;;;;5118979;28;20293;-68
2023/08/05 07:01:15;;;;;;;6.50;6.00;;;;;;;;;;5119282;28;20225;-68
2023/08/05 07:03:44;;;;;;;5.65;5.35;;;;;;;;;;5118180;28;20203;-68
2023/08/05 07:06:12;;;;;;;6.28;5.88;;;;;;;;;;5118574;28;20226;-68
2023/08/05 07:08:39;;;;;;;7.20;6.70;;;;;;;;;;5118513;28;20215;-68
2023/08/05 07:11:08;;;;;;;6.35;5.95;;;;;;;;;;5118307;28;20202;-72
2023/08/05 07:13:35;;;;;;;7.13;6.63;;;;;;;;;;5118308;28;20324;-68
2023/08/05 07:16:04;;;;;;;6.30;5.90;;;;;;;;;;5118008;28;20536;-68
2023/08/05 07:18:32;;;;;;;6.70;6.30;;;;;;;;;;5118037;28;20203;-68
2023/08/05 07:20:59;;;;;;;5.95;5.53;;;;;;;;;;5118062;28;20217;-68
2023/08/05 07:23:27;;;;;;;6.38;5.97;;;;;;;;;;5118066;28;20203;-68
2023/08/05 07:25:54;;;;;;;6.03;5.63;;;;;;;;;;5118617;28;20213;-68
2023/08/05 07:28:23;;;;;;;6.90;6.40;;;;;;;;;;5118004;28;20195;-68
2023/08/05 07:30:50;;;;;;;6.53;6.03;;;;;;;;;;5117620;28;20491;-68
2023/08/05 07:33:18;;;;;;;6.38;5.88;;;;;;;;;;5118544;28;20318;-68
2023/08/05 07:35:45;;;;;;;5.93;5.53;;;;;;;;;;5117931;28;20289;-68
2023/08/05 07:38:13;;;;;;;5.65;5.32;;;;;;;;;;5118068;28;20291;-68
2023/08/05 07:40:41;;;;;;;6.13;5.72;;;;;;;;;;5117551;28;20214;-68
2023/08/05 07:43:09;;;;;;;5.85;5.45;;;;;;;;;;5117957;28;20312;-68
2023/08/05 07:45:38;;;;;;;6.05;5.65;;;;;;;;;;5117083;28;20657;-68
2023/08/05 07:48:08;;;;;;;6.45;6.05;;;;;;;;;;5117676;28;20229;-68
2023/08/05 07:50:35;;;;;;;6.10;5.70;;;;;;;;;;5116295;28;20202;-68
2023/08/05 07:53:04;;;;;;;6.40;6.00;;;;;;;;;;5117085;28;20270;-68
2023/08/05 07:55:33;;;;;;;6.05;5.65;;;;;;;;;;5117546;28;20252;-68
2023/08/05 07:58:02;;;;;;;5.88;5.47;;;;;;;;;;5116967;28;20563;-68
2023/08/05 08:00:30;;;;;;;6.07;5.68;;;;;;;;;;5117291;28;20515;-68
2023/08/05 08:02:59;;;;;;;6.20;5.80;;;;;;;;;;5106621;28;20219;-68
2023/08/05 08:05:27;;;;;;;6.55;6.05;;;;;;;;;;5096713;28;20218;-68
2023/08/05 08:07:56;;;;;;;7.32;6.70;;;;;;;;;;5096561;28;20196;-68
2023/08/05 08:10:25;;;;;;;6.70;6.20;;;;;;;;;;5096438;28;20203;-68
2023/08/05 08:12:52;;;;;;;6.97;6.47;;;;;;;;;;5095932;28;20639;-68
2023/08/05 08:15:20;;;;;;;6.63;6.22;;;;;;;;;;5096318;28;20204;-68
2023/08/05 08:17:48;;;;;;;6.18;5.78;;;;;;;;;;5096511;28;20200;-68
2023/08/05 08:20:17;;;;;;;6.35;5.85;;;;;;;;;;5096483;28;20285;-68
2023/08/05 08:22:44;;;;;;;6.43;6.03;;;;;;;;;;5095976;28;20207;-68
2023/08/05 08:25:12;;;;;;;6.25;5.85;;;;;;;;;;5096052;28;20211;-68
2023/08/05 08:27:39;;;;;;;6.90;6.50;;;;;;;;;;5096186;28;20207;-68
2023/08/05 08:30:07;;;;;;;6.72;6.32;;;;;;;;;;5095522;28;20222;-68
2023/08/05 08:32:35;;;;;;;7.18;6.68;;;;;;;;;;5096061;28;20762;-68
2023/08/05 08:35:02;;;;;;;6.63;6.22;;;;;;;;;;5096148;28;20480;-68
2023/08/05 08:37:31;;;;;;;6.50;6.00;;;;;;;;;;5096369;28;20575;-68
2023/08/05 08:39:58;;;;;;;6.60;6.10;;;;;;;;;;5096857;28;20196;-68
2023/08/05 08:42:27;;;;;;;6.72;6.22;;;;;;;;;;5096349;28;20210;-68
2023/08/05 08:44:55;;;;;;;6.63;6.20;;;;;;;;;;5095703;28;20286;-68
2023/08/05 08:47:24;;;;;;;6.45;5.97;;;;;;;;;;5095938;28;20215;-68
2023/08/05 08:49:54;;;;;;;7.25;6.70;;;;;;;;;;5095746;28;20590;-68
2023/08/05 08:52:22;;;;;;;6.35;5.88;;;;;;;;;;5095201;28;20335;-68
2023/08/05 08:54:52;;;;;;;6.28;5.88;;;;;;;;;;5095458;28;20356;-68
2023/08/05 08:57:19;;;;;;;6.45;5.90;;;;;;;;;;5095568;28;20207;-68
2023/08/05 08:59:47;;;;;;;5.45;5.15;;;;;;;;;;5095565;28;20218;-68
2023/08/05 09:02:15;;;;;;;6.20;5.80;;;;;;;;;;5097602;28;20199;-68
2023/08/05 09:04:43;;;;;;;6.30;5.68;;;;;;;;;;5099434;28;20500;-68
2023/08/05 09:07:11;;;;;;;6.20;5.70;;;;;;;;;;5099499;28;20302;-68
2023/08/05 09:09:39;;;;;;;5.82;5.32;;;;;;;;;;5099759;28;20484;-68
2023/08/05 09:12:09;;;;;;;5.82;5.43;;;;;;;;;;5099500;28;20540;-68
2023/08/05 09:14:37;;;;;;;5.60;5.20;;;;;;;;;;5099846;28;20236;-68
2023/08/05 09:17:04;;;;;;;5.90;5.50;;;;;;;;;;5099785;28;20216;-68
2023/08/05 09:19:32;;;;;;;5.80;5.30;;;;;;;;;;5100162;28;20490;-68
2023/08/05 09:22:01;;;;;;;5.22;4.93;;;;;;;;;;5100073;28;20329;-68
2023/08/05 09:24:29;;;;;;;5.47;5.18;;;;;;;;;;5098864;28;20620;-68
2023/08/05 09:26:57;;;;;;;5.38;4.97;;;;;;;;;;5099443;28;20235;-69
2023/08/05 09:29:26;;;;;;;5.40;5.00;;;;;;;;;;5099378;28;20599;-68
2023/08/05 09:31:57;;;;;;;5.05;4.65;;;;;;;;;;5099494;28;20301;-68
2023/08/05 09:34:32;;;;;;;4.63;4.32;;;;;;;;;;5098946;28;20204;-68
2023/08/05 09:36:59;;;;;;;4.93;4.63;;;;;;;;;;5099456;28;20204;-68
2023/08/05 09:39:30;;;;;;;5.13;4.63;;;;;;;;;;5098925;28;20298;-68
2023/08/05 09:41:59;;;;;;;5.22;4.82;;;;;;;;;;5099324;28;20776;-68
2023/08/05 09:44:28;;;;;;;4.65;4.30;;;;;;;;;;5098768;28;20196;-68
2023/08/05 09:46:57;;;;;;;4.75;4.45;;;;;;;;;;5099030;28;20276;-68
2023/08/05 09:49:25;;;;;;;4.45;4.15;;;;;;;;;;5098428;28;20484;-68
2023/08/05 09:51:53;;;;;;;4.32;4.03;;;;;;;;;;5098586;28;20235;-68
2023/08/05 09:54:30;;;;;;;4.63;4.22;;;;;;;;;;5098757;28;20227;-68
2023/08/05 09:56:59;;;;;;;4.25;3.85;;;;;;;;;;5100355;28;20207;-68
2023/08/05 09:59:29;;;;;;;4.35;4.05;;;;;;;;;;5107760;28;20221;-68
2023/08/05 10:01:59;;;;;;;4.25;3.90;;;;;;;;;;5108336;28;20595;-68
2023/08/05 10:04:28;;;;;;;4.00;3.70;;;;;;;;;;5106298;28;20212;-68
2023/08/05 10:06:55;;;;;;;4.13;3.83;;;;;;;;;;5108878;28;20278;-68
2023/08/05 10:09:23;;;;;;;3.75;3.50;;;;;;;;;;5105049;28;20602;-68
2023/08/05 10:11:50;;;;;;;4.20;3.90;;;;;;;;;;5107874;28;20295;-68
2023/08/05 10:14:18;;;;;;;3.90;3.60;;;;;;;;;;5106914;28;20203;-68
2023/08/05 10:16:48;;;;;;;4.07;3.67;;;;;;;;;;5110241;28;20291;-68
2023/08/05 10:19:15;;;;;;;4.50;3.70;;;;;;;;;;5108991;28;20187;-68
2023/08/05 10:21:42;;;;;;;3.90;3.60;;;;;;;;;;5108881;28;20202;-68
2023/08/05 10:24:10;;;;;;;3.70;3.50;;;;;;;;;;5109057;28;20195;-69
2023/08/05 10:26:44;;;;;;;3.47;3.25;;;;;;;;;;5106824;28;20205;-68
2023/08/05 10:29:29;;;;;;;3.35;3.15;;;;;;;;;;5110276;28;20255;-68
2023/08/05 10:32:17;;;;;;;3.13;2.92;;;;;;;;;;5104316;28;20290;-68
2023/08/05 10:35:06;;;;;;;3.97;3.70;;;;;;;;;;5096439;28;20572;-68
2023/08/05 10:37:49;;;;;;;3.45;3.15;;;;;;;;;;5097281;28;20213;-68
2023/08/05 10:40:37;;;;;;;3.45;3.15;;;;;;;;;;5097587;28;20361;-68
2023/08/05 10:43:05;;;;;;;3.30;3.00;;;;;;;;;;5097648;28;20206;-69
2023/08/05 10:45:33;;;;;;;4.22;2.90;;;;;;;;;;5097814;28;20290;-69
2023/08/05 10:48:01;;;;;;;3.10;2.90;;;;;;;;;;5097782;28;20226;-68
2023/08/05 10:50:37;;;;;;;3.00;2.80;;;;;;;;;;5097707;28;20728;-68
2023/08/05 10:53:05;;;;;;;3.20;3.00;;;;;;;;;;5097363;28;20706;-68
2023/08/05 10:55:45;;;;;;;2.92;2.72;;;;;;;;;;5097624;28;20208;-68
2023/08/05 10:58:12;;;;;;;2.95;2.75;;;;;;;;;;5101276;28;20233;-68
2023/08/05 11:00:42;;;;;;;2.72;2.50;;;;;;;;;;5118073;28;20199;-69
2023/08/05 11:03:27;;;;;;;3.35;2.80;;;;;;;;;;5118695;28;20227;-68
2023/08/05 11:05:57;;;;;;;2.95;2.75;;;;;;;;;;5118378;28;20323;-71
2023/08/05 11:08:25;;;;;;;3.55;2.60;;;;;;;;;;5117296;28;20302;-71
2023/08/05 11:10:53;;;;;;;3.20;2.90;;;;;;;;;;5115513;28;20217;-71
2023/08/05 11:13:21;;;;;;;3.10;2.80;;;;;;;;;;5116989;28;20219;-71
2023/08/05 11:16:01;;;;;;;3.13;2.92;;;;;;;;;;5117278;28;20195;-71
2023/08/05 11:18:29;;;;;;;4.93;4.43;;;;;;;;;;5116933;28;20240;-71
2023/08/05 11:20:58;;;;;;;5.10;4.70;;;;;;;;;;5117457;28;20205;-70
2023/08/05 11:23:25;;;;;;;7.60;7.00;;;;;;;;;;5117280;28;20210;-71
2023/08/05 11:25:53;;;;;;;6.97;6.47;;;;;;;;;;5117260;28;20561;-70
2023/08/05 11:28:21;;;;;;;6.78;6.07;;;;;;;;;;5117276;28;20661;-70
2023/08/05 11:30:48;;;;;;;7.88;7.18;;;;;;;;;;5117253;28;20491;-70
2023/08/05 11:33:16;;;;;;;6.50;5.90;;;;;;;;;;5117122;28;20232;-71
2023/08/05 11:35:45;;;;;;;4.72;4.40;;;;;;;;;;5116521;28;20554;-71
2023/08/05 11:38:16;;;;;;;4.40;4.00;;;;;;;;;;5116519;28;20487;-70
2023/08/05 11:40:45;;;;;;;5.00;4.47;;;;;;;;;;5116793;28;20214;-70
2023/08/05 11:43:13;;;;;;;4.00;3.70;;;;;;;;;;5116789;28;20297;-71
2023/08/05 11:45:41;;;;;;;4.05;3.75;;;;;;;;;;5116790;28;20214;-71
2023/08/05 11:48:17;;;;;;;5.00;4.47;;;;;;;;;;5116737;28;20638;-70
2023/08/05 11:50:45;;;;;;;4.10;3.80;;;;;;;;;;5115495;28;20199;-71
2023/08/05 11:53:14;;;;;;;4.18;3.88;;;;;;;;;;5116172;28;20218;-71
2023/08/05 11:55:42;;;;;;;3.88;3.58;;;;;;;;;;5116281;28;20257;-71
2023/08/05 11:58:10;;;;;;;4.40;4.00;;;;;;;;;;5116768;28;20259;-70
2023/08/05 12:00:38;;;;;;;4.10;3.80;;;;;;;;;;5116454;28;20203;-70
2023/08/05 12:03:06;;;;;;;4.30;4.00;;;;;;;;;;5116247;28;20207;-70
2023/08/05 12:05:34;;;;;;;4.07;3.78;;;;;;;;;;5115678;28;20298;-71
2023/08/05 12:08:01;;;;;;;3.67;3.40;;;;;;;;;;5116295;28;20301;-70
2023/08/05 12:10:30;;;;;;;4.00;3.70;;;;;;;;;;5116718;28;20209;-70
2023/08/05 12:12:57;;;;;;;4.25;3.88;;;;;;;;;;5115504;28;20226;-70
2023/08/05 12:15:26;;;;;;;3.63;3.20;;;;;;;;;;5115893;28;20211;-70
2023/08/05 12:17:54;;;;;;;3.78;3.47;;;;;;;;;;5116218;28;20203;-71
2023/08/05 12:20:22;;;;;;;3.85;3.55;;;;;;;;;;5116053;28;20272;-71
2023/08/05 12:22:50;;;;;;;3.80;3.50;;;;;;;;;;5116447;28;20201;-71
2023/08/05 12:25:17;;;;;;;4.90;4.40;;;;;;;;;;5115464;28;20680;-71
2023/08/05 12:27:46;;;;;;;4.30;4.00;;;;;;;;;;5116068;28;20202;-71
2023/08/05 12:30:14;;;;;;;4.25;3.95;;;;;;;;;;5115233;28;20195;-71
2023/08/05 12:32:42;;;;;;;4.43;4.13;;;;;;;;;;5114990;28;20203;-71
2023/08/05 12:35:10;;;;;;;4.63;4.22;;;;;;;;;;5115661;28;20202;-71
2023/08/05 12:37:38;;;;;;;4.32;4.00;;;;;;;;;;5115270;28;20281;-71
2023/08/05 12:40:06;;;;;;;4.22;3.83;;;;;;;;;;5116431;28;20264;-71
2023/08/05 12:42:34;;;;;;;5.57;4.63;;;;;;;;;;5115804;28;20610;-71
2023/08/05 12:45:05;;;;;;;4.32;3.92;;;;;;;;;;5115049;28;20195;-71
2023/08/05 12:47:32;;;;;;;4.97;4.30;;;;;;;;;;5115197;28;20575;-71
2023/08/05 12:50:00;;;;;;;4.15;3.85;;;;;;;;;;5115937;28;20242;-71
2023/08/05 12:52:27;;;;;;;4.35;4.05;;;;;;;;;;5115433;28;20709;-71
2023/08/05 12:54:55;;;;;;;4.10;3.80;;;;;;;;;;5115904;28;20219;-71
2023/08/05 12:57:22;;;;;;;5.03;4.63;;;;;;;;;;5115610;28;20294;-70
2023/08/05 12:59:50;;;;;;;6.25;5.75;;;;;;;;;;5114737;28;20195;-70
2023/08/05 13:02:22;;;;;;;8.20;7.50;;;;;;;;;;5109257;28;20202;-70
2023/08/05 13:04:51;;;;;;;9.00;8.20;;;;;;;;;;5105494;28;20275;-71
2023/08/05 13:07:19;;;;;;;10.65;9.82;;;;;;;;;;5099011;28;20211;-71
2023/08/05 13:09:46;;;;;;;11.32;10.43;;;;;;;;;;5095237;28;20243;-71
2023/08/05 13:12:14;;;;;;;12.70;11.70;;;;;;;;;;5095257;28;20253;-71
2023/08/05 13:14:43;;;;;;;12.98;11.88;;;;;;;;;;5094573;28;20262;-70
2023/08/05 13:17:10;;;;;;;13.15;11.95;;;;;;;;;;5095308;28;20204;-70
2023/08/05 13:19:39;;;;;;;13.68;12.57;;;;;;;;;;5095235;28;20679;-70
2023/08/05 13:22:07;;;;;;;13.95;12.75;;;;;;;;;;5094998;28;20221;-70
2023/08/05 13:24:35;;;;;;;15.45;14.18;;;;;;;;;;5094727;28;20311;-70
2023/08/05 13:27:02;;;;;;;17.17;15.77;;;;;;;;;;5094227;28;20307;-70
2023/08/05 13:29:30;;;;;;;15.48;14.18;;;;;;;;;;5094498;28;20204;-71
2023/08/05 13:31:57;;;;;;;14.27;13.13;;;;;;;;;;5093919;28;20215;-71
2023/08/05 13:34:24;;;;;;;14.55;13.32;;;;;;;;;;5094371;28;20326;-71
2023/08/05 13:36:53;;;;;;;13.20;12.13;;;;;;;;;;5094844;28;20207;-71
2023/08/05 13:39:22;;;;;;;13.48;12.30;;;;;;;;;;5095504;28;20564;-71
2023/08/05 13:41:56;;;;;;;11.35;10.45;;;;;;;;;;5095420;28;20203;-71
2023/08/05 13:44:23;;;;;;;11.68;10.77;;;;;;;;;;5095193;28;20200;-71
2023/08/05 13:46:51;;;;;;;10.93;10.02;;;;;;;;;;5094989;28;20604;-71
2023/08/05 13:49:18;;;;;;;10.18;9.35;;;;;;;;;;5096531;28;20605;-71
2023/08/05 13:51:47;;;;;;;10.07;9.20;;;;;;;;;;5098507;28;20300;-71
2023/08/05 13:54:15;;;;;;;9.60;8.80;;;;;;;;;;5098568;28;20565;-71
2023/08/05 13:56:43;;;;;;;10.07;9.27;;;;;;;;;;5097814;28;20286;-71
2023/08/05 13:59:10;;;;;;;9.48;8.68;;;;;;;;;;5109642;28;20286;-71
2023/08/05 14:01:38;;;;;;;8.45;7.75;;;;;;;;;;5118404;28;20203;-71
2023/08/05 14:04:05;;;;;;;8.90;8.20;;;;;;;;;;5118878;28;20294;-71
2023/08/05 14:06:33;;;;;;;8.02;7.43;;;;;;;;;;5117590;28;20272;-71
2023/08/05 14:09:05;;;;;;;7.82;7.22;;;;;;;;;;5118688;28;20209;-71
2023/08/05 14:11:34;;;;;;;7.75;7.05;;;;;;;;;;5118654;28;20528;-71
2023/08/05 14:14:02;;;;;;;7.57;6.97;;;;;;;;;;5117862;28;20317;-71
2023/08/05 14:16:29;;;;;;;6.80;6.20;;;;;;;;;;5118623;28;20199;-71
2023/08/05 14:18:56;;;;;;;6.90;6.35;;;;;;;;;;5118512;28;20298;-71
2023/08/05 14:21:24;;;;;;;6.25;5.75;;;;;;;;;;5117827;28;20209;-71
2023/08/05 14:23:52;;;;;;;6.10;5.60;;;;;;;;;;5118338;28;20221;-71
2023/08/05 14:26:19;;;;;;;6.30;5.80;;;;;;;;;;5117778;28;20226;-71
2023/08/05 14:28:48;;;;;;;5.97;5.47;;;;;;;;;;5117865;28;20213;-71
2023/08/05 14:31:15;;;;;;;5.65;5.25;;;;;;;;;;5118455;28;20198;-71
2023/08/05 14:33:42;;;;;;;6.15;5.68;;;;;;;;;;5117467;28;20317;-71
2023/08/05 14:36:10;;;;;;;5.97;5.47;;;;;;;;;;5117290;28;20199;-71
2023/08/05 14:38:38;;;;;;;5.28;4.88;;;;;;;;;;5117001;28;20202;-71
2023/08/05 14:41:05;;;;;;;5.13;4.72;;;;;;;;;;5117404;28;20761;-71
2023/08/05 14:43:33;;;;;;;4.75;4.45;;;;;;;;;;5112313;28;20256;-71
2023/08/05 14:46:04;;;;;;;4.70;4.30;;;;;;;;;;5106864;28;20497;-71
2023/08/05 14:48:32;;;;;;;4.82;4.40;;;;;;;;;;5113165;28;20202;-71